createdAt,value
2023-05-14T00:01:33.730Z,26.78
2023-05-14T00:04:03.391Z,26.99
2023-05-14T00:06:31.923Z,26.59
2023-05-14T00:09:00.535Z,26.99
2023-05-14T00:11:28.934Z,26.66
2023-05-14T00:13:57.352Z,27.66
2023-05-14T00:16:25.850Z,26.89
2023-05-14T00:18:54.443Z,27.28
2023-05-14T00:21:22.859Z,26.67
2023-05-14T00:23:51.288Z,27.03
2023-05-14T00:26:21.415Z,27.75
2023-05-14T00:28:49.923Z,26.12
2023-05-14T00:31:18.348Z,25.75
2023-05-14T00:33:46.865Z,26.34
2023-05-14T00:36:15.293Z,27.54
2023-05-14T00:38:43.724Z,27.63
2023-05-14T00:41:12.238Z,29.35
2023-05-14T00:43:40.890Z,27.13
2023-05-14T00:46:09.493Z,27.16
2023-05-14T00:48:38.101Z,28.41
2023-05-14T00:51:07.804Z,29.54
2023-05-14T00:53:36.662Z,29.69
2023-05-14T00:56:05.623Z,28.23
2023-05-14T00:58:34.264Z,27.14
2023-05-14T01:01:03.946Z,28.07
2023-05-14T01:03:33.680Z,28.91
2023-05-14T01:06:26.404Z,28.20
2023-05-14T01:09:13.631Z,27.93
2023-05-14T01:12:02.826Z,26.95
2023-05-14T01:14:42.922Z,28.62
2023-05-14T01:17:15.449Z,28.42
2023-05-14T01:19:45.261Z,30.12
2023-05-14T01:22:14.275Z,29.51
2023-05-14T01:24:42.760Z,29.79
2023-05-14T01:27:43.490Z,29.64
2023-05-14T01:30:21.460Z,28.02
2023-05-14T01:32:53.798Z,27.39
2023-05-14T01:35:28.845Z,28.29
2023-05-14T01:38:01.118Z,28.54
2023-05-14T01:40:30.472Z,27.32
2023-05-14T01:42:59.717Z,29.63
2023-05-14T01:45:28.132Z,28.58
2023-05-14T01:47:57.339Z,27.84
2023-05-14T01:50:26.002Z,27.67
2023-05-14T01:52:56.538Z,28.18
2023-05-14T01:55:25.695Z,27.83
2023-05-14T01:57:54.377Z,30.56
2023-05-14T02:00:25.867Z,28.72
2023-05-14T02:02:54.611Z,30.27
2023-05-14T02:05:24.003Z,30.61
2023-05-14T02:07:52.509Z,28.88
2023-05-14T02:10:21.180Z,28.53
2023-05-14T02:12:49.795Z,29.08
2023-05-14T02:15:18.361Z,28.31
2023-05-14T02:17:46.915Z,28.56
2023-05-14T02:20:15.526Z,28.29
2023-05-14T02:22:46.108Z,30.64
2023-05-14T02:25:14.788Z,28.60
2023-05-14T02:27:43.191Z,29.11
2023-05-14T02:30:12.582Z,29.90
2023-05-14T02:32:41.364Z,30.38
2023-05-14T02:35:10.066Z,29.29
2023-05-14T02:37:38.486Z,29.57
2023-05-14T02:40:07.702Z,29.66
2023-05-14T02:42:36.151Z,31.25
2023-05-14T02:45:05.028Z,31.04
2023-05-14T02:47:36.102Z,30.82
2023-05-14T02:50:06.808Z,29.41
2023-05-14T02:52:35.748Z,29.17
2023-05-14T02:55:04.873Z,29.31
2023-05-14T02:57:33.338Z,29.31
2023-05-14T03:00:01.770Z,30.44
2023-05-14T03:02:31.099Z,31.56
2023-05-14T03:05:00.087Z,30.87
2023-05-14T03:07:28.561Z,30.24
2023-05-14T03:09:57.157Z,29.50
2023-05-14T03:12:25.680Z,30.23
2023-05-14T03:14:54.132Z,30.09
2023-05-14T03:17:22.999Z,30.00
2023-05-14T03:19:51.456Z,31.69
2023-05-14T03:22:19.957Z,31.36
2023-05-14T03:24:48.376Z,31.57
2023-05-14T03:27:16.837Z,32.42
2023-05-14T03:29:45.309Z,31.60
2023-05-14T03:32:13.873Z,31.43
2023-05-14T03:34:42.455Z,31.07
2023-05-14T03:37:11.397Z,31.03
2023-05-14T03:39:40.002Z,29.84
2023-05-14T03:42:08.420Z,29.65
2023-05-14T03:44:36.800Z,31.01
2023-05-14T03:47:05.373Z,31.26
2023-05-14T03:49:35.132Z,31.77
2023-05-14T03:52:04.847Z,31.62
2023-05-14T03:54:33.387Z,31.69
2023-05-14T03:57:01.969Z,33.18
2023-05-14T03:59:30.492Z,32.05
2023-05-14T04:01:58.846Z,31.80
2023-05-14T04:04:27.556Z,32.93
2023-05-14T04:06:56.216Z,35.10
2023-05-14T04:09:24.729Z,33.89
2023-05-14T04:11:53.273Z,32.99
2023-05-14T04:14:21.789Z,31.33
2023-05-14T04:16:50.344Z,30.66
2023-05-14T04:19:19.093Z,30.78
2023-05-14T04:21:47.683Z,32.22
2023-05-14T04:24:17.309Z,30.65
2023-05-14T04:26:45.794Z,32.12
2023-05-14T04:29:14.185Z,31.23
2023-05-14T04:31:43.177Z,31.48
2023-05-14T04:34:11.921Z,31.29
2023-05-14T04:36:40.407Z,30.79
2023-05-14T04:39:12.444Z,31.25
2023-05-14T04:41:40.986Z,30.30
2023-05-14T04:44:09.583Z,30.66
2023-05-14T04:46:38.083Z,32.12
2023-05-14T04:49:06.657Z,31.44
2023-05-14T04:51:35.118Z,31.14
2023-05-14T04:54:03.700Z,30.88
2023-05-14T04:56:32.230Z,30.25
2023-05-14T04:59:00.746Z,30.96
2023-05-14T05:01:29.379Z,29.95
2023-05-14T05:03:58.174Z,32.44
2023-05-14T05:06:26.800Z,30.70
2023-05-14T05:08:55.851Z,30.96
2023-05-14T05:11:24.325Z,30.54
2023-05-14T05:13:52.838Z,29.66
2023-05-14T05:16:21.301Z,30.55
2023-05-14T05:18:49.813Z,34.10
2023-05-14T05:21:18.386Z,30.45
2023-05-14T05:23:46.772Z,28.70
2023-05-14T05:26:15.784Z,28.50
2023-05-14T05:28:44.203Z,28.60
2023-05-14T05:31:12.800Z,29.48
2023-05-14T05:33:41.335Z,28.61
2023-05-14T05:36:09.762Z,28.35
2023-05-14T05:38:38.169Z,28.96
2023-05-14T05:41:06.849Z,29.68
2023-05-14T05:43:35.506Z,32.68
2023-05-14T05:46:04.021Z,29.80
2023-05-14T05:48:32.532Z,29.69
2023-05-14T05:51:01.158Z,30.82
2023-05-14T05:53:29.581Z,30.42
2023-05-14T05:55:58.024Z,30.79
2023-05-14T05:58:26.663Z,30.33
2023-05-14T06:00:57.523Z,28.91
2023-05-14T06:03:29.045Z,28.63
2023-05-14T06:05:57.875Z,28.29
2023-05-14T06:08:26.570Z,28.39
2023-05-14T06:10:55.016Z,27.93
2023-05-14T06:13:23.597Z,28.28
2023-05-14T06:15:52.159Z,28.17
2023-05-14T06:18:20.793Z,29.36
2023-05-14T06:20:49.312Z,28.71
2023-05-14T06:23:17.825Z,29.01
2023-05-14T06:25:46.737Z,29.01
2023-05-14T06:28:16.053Z,29.65
2023-05-14T06:30:44.558Z,30.73
2023-05-14T06:33:13.458Z,30.12
2023-05-14T06:35:42.169Z,29.72
2023-05-14T06:38:10.708Z,29.54
2023-05-14T06:40:40.318Z,32.48
2023-05-14T06:43:11.980Z,29.92
2023-05-14T06:45:40.663Z,28.60
2023-05-14T06:48:10.218Z,29.11
2023-05-14T06:50:39.051Z,31.44
2023-05-14T06:53:07.760Z,30.27
2023-05-14T06:55:36.499Z,30.37
2023-05-14T06:58:08.582Z,29.72
2023-05-14T07:00:37.002Z,32.08
2023-05-14T07:03:05.563Z,31.73
2023-05-14T07:05:34.051Z,30.09
2023-05-14T07:08:02.462Z,30.20
2023-05-14T07:10:30.935Z,31.04
2023-05-14T07:12:59.258Z,31.63
2023-05-14T07:15:27.776Z,29.49
2023-05-14T07:17:56.293Z,30.16
2023-05-14T07:20:25.259Z,31.63
2023-05-14T07:22:54.059Z,31.90
2023-05-14T07:25:24.483Z,30.23
2023-05-14T07:27:52.917Z,30.73
2023-05-14T07:30:21.871Z,28.76
2023-05-14T07:32:50.563Z,29.50
2023-05-14T07:35:19.092Z,29.56
2023-05-14T07:37:47.392Z,28.64
2023-05-14T07:40:16.800Z,27.71
2023-05-14T07:42:45.111Z,27.58
2023-05-14T07:45:13.501Z,29.42
2023-05-14T07:47:41.924Z,28.11
2023-05-14T07:50:10.922Z,29.48
2023-05-14T07:52:39.477Z,30.92
2023-05-14T07:55:08.504Z,32.07
2023-05-14T07:57:37.478Z,29.28
2023-05-14T08:00:08.558Z,31.60
2023-05-14T08:02:36.975Z,31.29
2023-05-14T08:05:05.630Z,29.85
2023-05-14T08:07:34.024Z,30.69
2023-05-14T08:10:03.529Z,29.98
2023-05-14T08:12:32.669Z,30.33
2023-05-14T08:15:01.022Z,29.95
2023-05-14T08:17:30.063Z,29.48
2023-05-14T08:19:58.526Z,28.12
2023-05-14T08:22:28.180Z,27.42
2023-05-14T08:24:56.771Z,27.26
2023-05-14T08:27:26.475Z,26.82
2023-05-14T08:29:54.894Z,26.98
2023-05-14T08:32:24.303Z,28.57
2023-05-14T08:34:52.850Z,26.69
2023-05-14T08:37:21.430Z,24.97
2023-05-14T08:39:49.737Z,26.10
2023-05-14T08:42:20.690Z,26.37
2023-05-14T08:44:52.561Z,26.17
2023-05-14T08:47:22.112Z,28.04
2023-05-14T08:49:58.722Z,26.39
2023-05-14T08:52:28.175Z,27.91
2023-05-14T08:54:57.754Z,27.32
2023-05-14T08:57:26.779Z,27.62
2023-05-14T08:59:55.266Z,25.45
2023-05-14T09:02:24.828Z,26.77
2023-05-14T09:04:58.100Z,26.55
2023-05-14T09:07:26.827Z,25.69
2023-05-14T09:09:55.636Z,25.21
2023-05-14T09:12:24.226Z,24.68
2023-05-14T09:14:52.549Z,24.27
2023-05-14T09:17:21.025Z,24.58
2023-05-14T09:19:49.597Z,25.36
2023-05-14T09:22:18.431Z,26.08
2023-05-14T09:24:47.409Z,25.36
2023-05-14T09:27:18.812Z,25.70
2023-05-14T09:29:47.628Z,26.49
2023-05-14T09:32:16.068Z,24.76
2023-05-14T09:34:44.508Z,24.78
2023-05-14T09:37:12.950Z,24.34
2023-05-14T09:39:41.438Z,23.27
2023-05-14T09:42:09.788Z,24.13
2023-05-14T09:44:38.776Z,23.84
2023-05-14T09:47:07.169Z,23.01
2023-05-14T09:49:35.722Z,23.25
2023-05-14T09:52:06.456Z,23.05
2023-05-14T09:54:35.871Z,23.58
2023-05-14T09:57:04.382Z,23.15
2023-05-14T09:59:32.910Z,24.25
2023-05-14T10:02:01.834Z,24.04
2023-05-14T10:04:30.165Z,24.60
2023-05-14T10:06:59.780Z,24.59
2023-05-14T10:09:29.684Z,23.56
2023-05-14T10:11:59.439Z,24.24
2023-05-14T10:14:33.536Z,25.48
2023-05-14T10:17:03.414Z,26.71
2023-05-14T10:19:33.417Z,24.59
2023-05-14T10:22:05.865Z,26.26
2023-05-14T10:24:34.439Z,24.62
2023-05-14T10:27:02.916Z,23.80
2023-05-14T10:29:34.888Z,25.27
2023-05-14T10:32:07.454Z,23.95
2023-05-14T10:34:43.885Z,23.10
2023-05-14T10:37:16.964Z,21.70
2023-05-14T10:39:58.180Z,23.53
2023-05-14T10:42:39.710Z,23.07
2023-05-14T10:45:09.212Z,21.79
2023-05-14T10:47:47.308Z,20.85
2023-05-14T10:50:15.913Z,22.59
2023-05-14T10:52:45.594Z,22.04
2023-05-14T10:55:14.877Z,21.65
2023-05-14T10:57:46.856Z,22.03
2023-05-14T11:00:15.818Z,20.83
2023-05-14T11:02:44.848Z,20.67
2023-05-14T11:05:15.570Z,21.55
2023-05-14T11:07:45.448Z,21.58
2023-05-14T11:10:15.217Z,20.19
2023-05-14T11:12:44.887Z,21.39
2023-05-14T11:15:14.626Z,22.21
2023-05-14T11:17:44.238Z,21.10
2023-05-14T11:20:13.135Z,21.59
2023-05-14T11:22:42.572Z,22.10
2023-05-14T11:25:14.553Z,23.57
2023-05-14T11:27:44.233Z,21.53
2023-05-14T11:30:13.633Z,21.19
2023-05-14T11:32:43.510Z,20.40
2023-05-14T11:35:12.468Z,20.01
2023-05-14T11:37:40.995Z,20.69
2023-05-14T11:40:18.960Z,20.77
2023-05-14T11:42:47.383Z,22.38
2023-05-14T11:45:24.423Z,20.91
2023-05-14T11:47:54.091Z,21.87
2023-05-14T11:50:23.337Z,20.20
2023-05-14T11:52:56.552Z,19.34
2023-05-14T11:55:24.936Z,19.41
2023-05-14T11:57:53.771Z,18.97
2023-05-14T12:00:24.034Z,19.69
2023-05-14T12:02:52.874Z,19.48
2023-05-14T12:05:21.799Z,18.67
2023-05-14T12:07:50.065Z,18.83
2023-05-14T12:10:18.530Z,18.81
2023-05-14T12:12:47.964Z,19.06
2023-05-14T12:15:17.232Z,19.36
2023-05-14T12:17:52.080Z,19.62
2023-05-14T12:20:20.711Z,19.13
2023-05-14T12:22:49.141Z,18.53
2023-05-14T12:25:17.563Z,18.96
2023-05-14T12:27:45.909Z,18.60
2023-05-14T12:35:14.850Z,17.36
2023-05-14T12:37:43.391Z,16.66
2023-05-14T12:40:11.904Z,16.07
2023-05-14T12:42:40.247Z,17.26
2023-05-14T12:45:08.920Z,15.98
2023-05-14T12:47:37.515Z,15.55
2023-05-14T12:50:06.504Z,17.54
2023-05-14T12:52:39.371Z,17.05
2023-05-14T12:55:09.267Z,16.92
2023-05-14T12:57:39.058Z,16.09
2023-05-14T13:00:09.887Z,16.42
2023-05-14T13:02:42.516Z,16.21
2023-05-14T13:05:12.014Z,15.89
2023-05-14T13:07:41.040Z,15.80
2023-05-14T13:10:12.017Z,16.02
2023-05-14T13:12:40.637Z,15.76
2023-05-14T13:15:09.517Z,15.42
2023-05-14T13:17:37.988Z,16.44
2023-05-14T13:20:07.159Z,14.98
2023-05-14T13:22:35.745Z,15.91
2023-05-14T13:25:04.853Z,15.48
2023-05-14T13:27:33.818Z,15.25
2023-05-14T13:30:02.712Z,14.47
2023-05-14T13:32:31.253Z,14.92
2023-05-14T13:34:59.649Z,15.57
2023-05-14T13:37:28.661Z,14.92
2023-05-14T13:39:57.271Z,15.10
2023-05-14T13:42:25.652Z,16.15
2023-05-14T13:44:53.959Z,15.61
2023-05-14T13:47:22.443Z,15.59
2023-05-14T13:49:51.892Z,15.34
2023-05-14T13:52:20.493Z,14.28
2023-05-14T13:54:53.116Z,13.94
2023-05-14T13:57:22.011Z,14.66
2023-05-14T13:59:50.437Z,14.47
2023-05-14T14:02:18.901Z,15.23
2023-05-14T14:04:47.377Z,15.99
2023-05-14T14:07:15.733Z,15.97
2023-05-14T14:09:45.101Z,14.82
2023-05-14T14:12:13.513Z,15.89
2023-05-14T14:14:41.923Z,16.71
2023-05-14T14:17:10.217Z,16.62
2023-05-14T14:19:39.612Z,16.28
2023-05-14T14:22:07.977Z,17.17
2023-05-14T14:24:36.316Z,17.74
2023-05-14T14:27:05.029Z,18.24
2023-05-14T14:29:34.376Z,17.99
2023-05-14T14:32:03.341Z,17.37
2023-05-14T14:34:31.805Z,18.98
2023-05-14T14:37:00.527Z,18.56
2023-05-14T14:39:29.290Z,19.90
2023-05-14T14:41:57.716Z,20.22
2023-05-14T14:44:26.457Z,19.63
2023-05-14T14:46:54.967Z,20.06
2023-05-14T14:49:24.321Z,20.85
2023-05-14T14:51:52.781Z,19.82
2023-05-14T14:54:24.268Z,19.43
2023-05-14T14:56:53.416Z,18.94
2023-05-14T14:59:21.947Z,19.04
2023-05-14T15:01:50.631Z,18.61
2023-05-14T15:04:19.302Z,19.31
2023-05-14T15:06:47.595Z,18.15
2023-05-14T15:09:16.412Z,17.99
2023-05-14T15:11:44.826Z,18.96
2023-05-14T15:14:13.196Z,18.26
2023-05-14T15:16:43.669Z,19.01
2023-05-14T15:19:13.202Z,20.16
2023-05-14T15:21:41.641Z,20.20
2023-05-14T15:24:16.517Z,18.72
2023-05-14T15:26:45.998Z,18.56
2023-05-14T15:29:15.518Z,20.75
2023-05-14T15:31:45.063Z,21.46
2023-05-14T15:34:13.451Z,20.17
2023-05-14T15:36:42.797Z,20.29
2023-05-14T15:39:11.262Z,20.21
2023-05-14T15:41:39.809Z,19.99
2023-05-14T15:44:08.418Z,19.46
2023-05-14T15:46:38.056Z,18.88
2023-05-14T15:49:07.755Z,19.37
2023-05-14T15:51:36.191Z,20.33
2023-05-14T15:54:04.976Z,19.95
2023-05-14T15:56:34.566Z,19.03
2023-05-14T15:59:05.246Z,20.37
2023-05-14T16:01:33.696Z,18.89
2023-05-14T16:04:02.150Z,19.27
2023-05-14T16:06:31.042Z,18.69
2023-05-14T16:09:00.619Z,19.08
2023-05-14T16:11:30.041Z,18.72
2023-05-14T16:13:58.633Z,18.58
2023-05-14T16:16:27.467Z,19.05
2023-05-14T16:18:55.965Z,19.10
2023-05-14T16:21:24.411Z,17.76
2023-05-14T16:23:52.814Z,16.99
2023-05-14T16:26:22.657Z,17.83
2023-05-14T16:28:51.263Z,19.06
2023-05-14T16:31:23.696Z,18.83
2023-05-14T16:33:52.174Z,21.01
2023-05-14T16:36:22.262Z,21.09
2023-05-14T16:39:06.762Z,20.09
2023-05-14T16:41:36.330Z,19.45
2023-05-14T16:44:05.075Z,19.77
2023-05-14T16:46:34.025Z,19.09
2023-05-14T16:49:03.613Z,19.17
2023-05-14T16:51:33.145Z,18.86
2023-05-14T16:54:03.032Z,19.15
2023-05-14T16:56:32.477Z,19.02
2023-05-14T16:59:00.962Z,19.22
2023-05-14T17:01:30.487Z,19.25
2023-05-14T17:03:59.010Z,19.64
2023-05-14T17:06:27.485Z,20.50
2023-05-14T17:09:00.487Z,22.00
2023-05-14T17:11:29.280Z,21.43
2023-05-14T17:13:57.908Z,20.53
2023-05-14T17:16:27.120Z,22.69
2023-05-14T17:18:55.893Z,21.53
2023-05-14T17:21:24.626Z,22.35
2023-05-14T17:23:53.195Z,21.78
2023-05-14T17:26:24.474Z,21.31
2023-05-14T17:28:53.049Z,22.72
2023-05-14T17:31:22.329Z,22.51
2023-05-14T17:33:50.959Z,24.18
2023-05-14T17:36:19.406Z,26.56
2023-05-14T17:38:48.142Z,25.84
2023-05-14T17:41:16.519Z,28.31
2023-05-14T17:43:44.835Z,30.30
2023-05-14T17:46:15.250Z,29.89
2023-05-14T17:48:43.925Z,27.90
2023-05-14T17:51:12.429Z,28.33
2023-05-14T17:53:43.567Z,28.77
2023-05-14T17:56:12.377Z,33.55
2023-05-14T17:58:41.344Z,31.04
2023-05-14T18:01:10.030Z,32.72
2023-05-14T18:03:39.701Z,33.10
2023-05-14T18:06:08.423Z,32.85
2023-05-14T18:08:36.900Z,33.55
2023-05-14T18:11:06.789Z,31.98
2023-05-14T18:13:35.347Z,32.19
2023-05-14T18:16:06.780Z,30.43
2023-05-14T18:18:35.326Z,32.50
2023-05-14T18:21:03.908Z,30.95
2023-05-14T18:23:32.297Z,30.10
2023-05-14T18:26:01.480Z,30.67
2023-05-14T18:28:29.943Z,29.66
2023-05-14T18:30:58.470Z,31.95
2023-05-14T18:33:28.232Z,33.38
2023-05-14T18:35:56.856Z,31.80
2023-05-14T18:38:25.631Z,33.27
2023-05-14T18:40:53.988Z,32.89
2023-05-14T18:43:22.565Z,33.18
2023-05-14T18:45:50.950Z,32.23
2023-05-14T18:48:19.482Z,31.80
2023-05-14T18:50:47.994Z,31.83
2023-05-14T18:53:16.458Z,32.39
2023-05-14T18:55:45.318Z,32.09
2023-05-14T18:58:14.877Z,33.01
2023-05-14T19:00:43.406Z,34.13
2023-05-14T19:03:11.874Z,35.01
2023-05-14T19:05:43.524Z,33.96
2023-05-14T19:08:12.063Z,32.22
2023-05-14T19:10:40.585Z,33.45
2023-05-14T19:13:09.199Z,35.71
2023-05-14T19:15:37.927Z,36.22
2023-05-14T19:18:06.644Z,34.01
2023-05-14T19:20:35.215Z,34.07
2023-05-14T19:23:03.618Z,35.83
2023-05-14T19:25:32.055Z,32.85
2023-05-14T19:28:01.756Z,33.44
2023-05-14T19:30:30.424Z,31.75
2023-05-14T19:32:59.084Z,33.40
2023-05-14T19:35:27.867Z,35.51
2023-05-14T19:37:56.384Z,33.40
2023-05-14T19:40:24.994Z,33.80
2023-05-14T19:42:54.513Z,32.91
2023-05-14T19:45:23.077Z,33.18
2023-05-14T19:47:51.777Z,34.02
2023-05-14T19:50:20.135Z,37.58
2023-05-14T19:52:48.613Z,35.07
2023-05-14T19:55:16.959Z,32.70
2023-05-14T19:57:45.415Z,31.96
2023-05-14T20:00:14.907Z,31.41
2023-05-14T20:02:43.513Z,32.60
2023-05-14T20:05:12.091Z,34.50
2023-05-14T20:07:40.684Z,32.94
2023-05-14T20:10:11.317Z,30.86
2023-05-14T20:12:39.677Z,33.88
2023-05-14T20:15:08.375Z,35.52
2023-05-14T20:17:38.457Z,33.74
2023-05-14T20:20:08.238Z,33.22
2023-05-14T20:22:38.194Z,32.67
2023-05-14T20:25:07.247Z,35.04
2023-05-14T20:27:36.656Z,33.02
2023-05-14T20:30:05.504Z,34.52
2023-05-14T20:32:34.052Z,33.71
2023-05-14T20:35:02.490Z,35.13
2023-05-14T20:37:32.275Z,36.33
2023-05-14T20:40:01.460Z,34.79
2023-05-14T20:42:30.042Z,34.68
2023-05-14T20:44:58.357Z,36.20
2023-05-14T20:47:28.940Z,36.68
2023-05-14T20:49:57.430Z,35.56
2023-05-14T20:52:25.858Z,33.15
2023-05-14T20:54:54.205Z,33.65
2023-05-14T20:57:22.698Z,33.80
2023-05-14T20:59:51.172Z,32.05
2023-05-14T21:02:19.629Z,33.20
2023-05-14T21:04:48.210Z,35.01
2023-05-14T21:07:16.633Z,34.66
2023-05-14T21:09:50.632Z,33.96
2023-05-14T21:12:19.318Z,34.12
2023-05-14T21:14:47.671Z,34.07
2023-05-14T21:17:16.176Z,33.38
2023-05-14T21:19:44.581Z,34.61
2023-05-14T21:22:14.088Z,32.64
2023-05-14T21:24:42.757Z,33.19
2023-05-14T21:27:11.441Z,33.59
2023-05-14T21:29:39.881Z,32.35
2023-05-14T21:32:08.361Z,31.19
2023-05-14T21:34:36.837Z,34.08
2023-05-14T21:37:07.397Z,33.25
2023-05-14T21:39:35.837Z,35.60
2023-05-14T21:42:04.407Z,33.53
2023-05-14T21:44:32.653Z,31.89
2023-05-14T21:47:01.975Z,33.55
2023-05-14T21:49:30.411Z,32.36
2023-05-14T21:52:00.692Z,32.06
2023-05-14T21:54:29.081Z,32.68
2023-05-14T21:56:57.513Z,33.76
2023-05-14T21:59:27.809Z,34.23
2023-05-14T22:02:06.753Z,34.09
2023-05-14T22:04:36.166Z,32.47
2023-05-14T22:07:04.656Z,32.29
2023-05-14T22:09:33.057Z,31.83
2023-05-14T22:12:01.811Z,33.56
2023-05-14T22:14:30.158Z,32.46
2023-05-14T22:16:58.793Z,31.83
2023-05-14T22:19:27.900Z,32.88
2023-05-14T22:21:56.499Z,32.85
2023-05-14T22:24:24.814Z,33.26
2023-05-14T22:26:53.195Z,33.88
2023-05-14T22:29:21.622Z,32.36
2023-05-14T22:31:51.064Z,33.34
2023-05-14T22:34:19.479Z,33.08
2023-05-14T22:36:47.903Z,33.89
2023-05-14T22:39:16.377Z,34.05
2023-05-14T22:41:44.726Z,34.49
2023-05-14T22:44:14.219Z,34.04
2023-05-14T22:46:42.772Z,34.22
2023-05-14T22:49:11.194Z,33.23
2023-05-14T22:51:39.685Z,33.54
2023-05-14T22:54:08.264Z,34.11
2023-05-14T22:56:37.543Z,33.10
2023-05-14T22:59:05.947Z,34.73
2023-05-14T23:01:34.406Z,35.40
2023-05-14T23:04:04.051Z,33.94
2023-05-14T23:06:32.446Z,33.44
2023-05-14T23:09:00.875Z,32.97
2023-05-14T23:11:29.282Z,33.19
2023-05-14T23:13:57.615Z,33.71
2023-05-14T23:16:26.200Z,32.75
2023-05-14T23:18:54.679Z,32.52
2023-05-14T23:21:23.649Z,33.64
2023-05-14T23:23:53.024Z,34.18
2023-05-14T23:26:21.775Z,33.49
2023-05-14T23:28:51.054Z,33.23
2023-05-14T23:31:19.457Z,33.09
2023-05-14T23:33:47.821Z,32.48
2023-05-14T23:36:17.155Z,33.92
2023-05-14T23:38:45.797Z,34.81
2023-05-14T23:41:14.208Z,35.64
2023-05-14T23:43:42.567Z,35.64
2023-05-14T23:46:11.138Z,35.56
2023-05-14T23:48:39.554Z,35.47
2023-05-14T23:51:07.885Z,34.99
2023-05-14T23:53:36.201Z,34.16
2023-05-14T23:56:04.614Z,33.69
2023-05-14T23:58:33.607Z,32.95
